Quick Links (Output Below):   Max & Min Temps   /   Climate Reports   /   Zone Forecasts
River Forecasts   /   Forestry Forecasts   /   Aviation Forecasts   /   Radars   /   Features

Terminal Aerodrome Forecast (Monticello)

Pick a Site:
Arkadelphia | El Dorado | Fayetteville | Fort Smith | Harrison | Highfill | Hot Springs | Jonesboro
Little Rock | Monticello | Mountain Home | Pine Bluff | Texarkana
 Forecast 

KLLQ 222332Z 2300/2324 18004KT P6SM SKC
     FM231700 24006KT P6SM SKC=


 Latest METARs (Observations) 
How to Decode METARs
01Z KLLQ 230053Z AUTO 20003KT 10SM CLR 30/23 A2999 RMK AO2 SLP152
         T03000228
         
00Z KLLQ 222353Z AUTO 19004KT 10SM CLR 32/23 A2999 RMK AO2 SLP152
         T03220228 10344 20322 56012
         
***** Today's Observations (Above) *****


23Z KLLQ 222253Z AUTO 19007KT 10SM CLR 33/23 A3000 RMK AO2 SLP156
         T03330228
         
22Z KLLQ 222153Z AUTO 20007KT 10SM CLR 34/22 A3001 RMK AO2 SLP158
         T03390217
         
21Z KLLQ 222053Z AUTO 20009KT 10SM CLR 34/22 A3003 RMK AO2 SLP164
         T03440217 57017
         
20Z KLLQ 221953Z AUTO 00000KT 10SM CLR 34/21 A3004 RMK AO2 SLP169
         T03390211
         
19Z KLLQ 221853Z AUTO 23004KT 10SM CLR 33/21 A3006 RMK AO2 SLP177
         T03280211
         
18Z KLLQ 221753Z AUTO VRB04KT 10SM CLR 33/22 A3008 RMK AO2 SLP181
         T03280217 10328 20239 58005
         
17Z KLLQ 221653Z AUTO 26007KT 10SM CLR 32/22 A3010 RMK AO2 SLP188
         T03170217
         
16Z KLLQ 221553Z AUTO 23007KT 10SM CLR 30/23 A3010 RMK AO2 SLP189
         T03000228
         
***** Yesterday's Observations (Above) *****


Back to Main Page
http://www.srh.noaa.gov/lzk/qfcst.php

USA.gov is the U.S. government's official web portal to all federal, state and local government web resources and services.